createdAt,value
2018-07-27T05:00:19.109Z,25.30
2018-07-27T05:02:54.557Z,26.10
2018-07-27T05:05:22.799Z,26.90
2018-07-27T05:07:52.097Z,25.70
2018-07-27T05:10:22.296Z,26.10
2018-07-27T05:12:50.886Z,27.00
2018-07-27T05:15:19.149Z,27.40
2018-07-27T05:20:15.373Z,28.00
2018-07-27T05:22:43.601Z,28.20
2018-07-27T05:25:11.856Z,29.00
2018-07-27T05:27:40.077Z,29.90
2018-07-27T05:30:08.333Z,29.20
2018-07-27T05:32:36.560Z,29.00
2018-07-27T05:35:05.334Z,28.20
2018-07-27T05:37:33.776Z,27.00
2018-07-27T05:40:03.120Z,27.40
2018-07-27T05:42:31.454Z,29.00
2018-07-27T05:44:59.826Z,30.20
2018-07-27T05:47:28.136Z,30.50
2018-07-27T05:49:57.526Z,30.10
2018-07-27T05:52:25.777Z,30.20
2018-07-27T05:54:54.025Z,30.30
2018-07-27T05:57:22.315Z,30.80
2018-07-27T05:59:50.921Z,30.50
2018-07-27T06:02:22.073Z,29.70
2018-07-27T06:04:49.992Z,30.40
2018-07-27T06:07:18.577Z,31.10
2018-07-27T06:09:46.918Z,31.60
2018-07-27T06:12:15.180Z,29.80
2018-07-27T06:14:44.021Z,30.40
2018-07-27T06:17:12.296Z,31.60
2018-07-27T06:19:40.697Z,29.20
2018-07-27T06:22:08.965Z,28.40
2018-07-27T06:24:46.027Z,29.90
2018-07-27T06:27:14.361Z,30.70
2018-07-27T06:29:42.661Z,29.80
2018-07-27T06:32:11.292Z,31.30
2018-07-27T06:34:39.665Z,30.10
2018-07-27T06:37:08.184Z,30.10
2018-07-27T06:39:36.433Z,30.30
2018-07-27T06:42:15.458Z,30.70
2018-07-27T06:44:43.874Z,29.90
2018-07-27T06:47:12.086Z,31.60
2018-07-27T06:49:40.428Z,31.90
2018-07-27T06:52:08.841Z,31.70
2018-07-27T06:54:37.109Z,32.10
2018-07-27T06:57:05.435Z,32.50
2018-07-27T06:59:33.669Z,32.30
2018-07-27T07:02:02.065Z,31.70
2018-07-27T07:04:30.350Z,31.70
2018-07-27T07:06:58.617Z,31.00
2018-07-27T07:09:26.889Z,30.80
2018-07-27T07:11:55.114Z,30.80
2018-07-27T07:14:23.387Z,32.00
2018-07-27T07:16:51.574Z,32.30
2018-07-27T07:19:19.797Z,32.30
2018-07-27T07:21:47.981Z,32.30
2018-07-27T07:24:16.229Z,32.10
2018-07-27T07:26:44.448Z,32.40
2018-07-27T07:29:12.697Z,32.80
2018-07-27T07:31:40.931Z,32.80
2018-07-27T07:34:09.161Z,32.70
2018-07-27T07:36:37.387Z,32.10
2018-07-27T07:39:08.191Z,31.90
2018-07-27T07:41:36.520Z,31.60
2018-07-27T07:44:04.757Z,31.60
2018-07-27T07:46:33.006Z,31.40
2018-07-27T07:49:04.105Z,32.10
2018-07-27T07:51:32.981Z,31.80
2018-07-27T07:54:01.302Z,31.50
2018-07-27T07:56:29.805Z,31.40
2018-07-27T07:58:58.157Z,30.80
2018-07-27T08:01:26.405Z,30.60
2018-07-27T08:03:54.657Z,30.70
2018-07-27T08:06:22.936Z,30.10
2018-07-27T08:08:51.174Z,29.80
2018-07-27T08:11:19.398Z,29.30
2018-07-27T08:13:47.742Z,29.40
2018-07-27T08:16:15.996Z,29.30
2018-07-27T08:18:44.402Z,29.30
2018-07-27T08:21:13.075Z,29.40
2018-07-27T08:23:41.677Z,29.80
2018-07-27T08:26:42.921Z,29.80
2018-07-27T08:29:12.109Z,29.50
2018-07-27T08:31:41.825Z,29.10
2018-07-27T08:34:12.815Z,29.30
2018-07-27T08:36:41.887Z,29.40
2018-07-27T08:39:12.020Z,29.40
2018-07-27T08:41:41.104Z,28.90
2018-07-27T08:44:13.371Z,29.20
2018-07-27T08:46:45.761Z,29.10
2018-07-27T08:49:14.250Z,29.50
2018-07-27T08:51:42.842Z,29.50
2018-07-27T08:54:30.537Z,29.20
2018-07-27T08:57:05.110Z,29.20
2018-07-27T08:59:34.404Z,29.00
2018-07-27T09:02:14.816Z,29.00
2018-07-27T09:04:43.028Z,29.20
2018-07-27T09:07:11.253Z,29.20
2018-07-27T09:09:40.445Z,29.20
2018-07-27T09:12:08.897Z,29.50
2018-07-27T09:14:37.849Z,29.60
2018-07-27T09:17:06.077Z,29.70
2018-07-27T09:19:34.382Z,29.80
2018-07-27T09:22:02.669Z,29.60
2018-07-27T09:24:31.046Z,29.70
2018-07-27T09:26:59.234Z,29.80
2018-07-27T09:29:27.495Z,29.80
2018-07-27T09:31:55.722Z,29.80
2018-07-27T09:34:23.957Z,29.80
2018-07-27T09:36:53.302Z,29.80
2018-07-27T11:31:52.134Z,29.90
2018-07-27T11:36:49.376Z,30.90
2018-07-27T11:39:18.753Z,30.80
2018-07-27T11:41:47.467Z,31.10
2018-07-27T11:44:15.774Z,31.40
2018-07-27T11:46:46.053Z,32.00
2018-07-27T11:49:14.264Z,32.30
2018-07-27T11:51:44.630Z,32.40
2018-07-27T11:54:12.885Z,32.00
2018-07-27T11:56:41.112Z,31.90
2018-07-27T11:59:09.406Z,31.80
2018-07-27T12:01:37.696Z,31.70
2018-07-27T12:04:05.967Z,31.90
2018-07-27T12:06:34.233Z,31.90
2018-07-27T12:09:02.489Z,31.80
2018-07-27T12:11:30.789Z,32.00
2018-07-27T12:13:59.141Z,32.20
2018-07-27T12:16:28.540Z,32.30
2018-07-27T12:18:56.891Z,32.20
2018-07-27T12:21:25.173Z,32.50
2018-07-27T12:23:53.414Z,32.60
2018-07-27T12:26:21.972Z,32.30
2018-07-27T12:28:50.276Z,32.00
2018-07-27T12:31:18.481Z,32.30
2018-07-27T12:33:46.680Z,32.60
2018-07-27T12:36:14.908Z,32.50
2018-07-27T12:38:43.206Z,32.30
2018-07-27T12:41:11.519Z,32.30
2018-07-27T12:43:39.768Z,31.80
2018-07-27T12:46:07.993Z,32.20
2018-07-27T12:48:36.582Z,32.20
2018-07-27T12:51:04.837Z,32.10
2018-07-27T12:53:33.167Z,31.50
2018-07-27T12:56:01.372Z,31.40
2018-07-27T12:58:29.579Z,31.60
2018-07-27T13:00:57.817Z,31.80
2018-07-27T13:03:26.057Z,31.80
2018-07-27T13:05:55.330Z,31.90
2018-07-27T13:08:23.598Z,31.50
2018-07-27T13:10:51.902Z,31.40
2018-07-27T13:13:20.134Z,31.40
2018-07-27T13:15:48.421Z,31.30
2018-07-27T13:18:25.634Z,30.80
2018-07-27T13:20:55.275Z,30.80
2018-07-27T13:23:24.144Z,30.80
2018-07-27T13:28:38.431Z,30.80
2018-07-27T13:31:12.774Z,30.90
2018-07-27T13:33:55.748Z,30.90
2018-07-27T13:36:24.016Z,31.00
2018-07-27T13:38:52.187Z,31.00
2018-07-27T13:41:20.438Z,31.20
2018-07-27T13:43:48.764Z,31.10
2018-07-27T13:46:16.980Z,31.10
2018-07-27T13:48:45.214Z,31.20
2018-07-27T13:51:16.493Z,31.40
2018-07-27T13:53:44.746Z,31.50
2018-07-27T13:56:13.025Z,31.20
2018-07-27T13:58:41.349Z,31.40
2018-07-27T14:01:09.673Z,31.40
2018-07-27T14:03:37.910Z,31.40
2018-07-27T14:06:06.199Z,31.50
2018-07-27T14:08:34.437Z,31.70
2018-07-27T14:11:02.684Z,31.40
2018-07-27T14:13:30.990Z,31.30
2018-07-27T14:15:59.258Z,31.20
2018-07-27T14:18:28.541Z,31.40
2018-07-27T14:20:57.014Z,31.50
2018-07-27T14:23:26.228Z,31.50
2018-07-27T14:25:56.465Z,31.70
2018-07-27T14:28:24.767Z,31.60
2018-07-27T14:30:55.089Z,31.60
2018-07-27T14:33:23.333Z,31.60
2018-07-27T14:35:51.564Z,31.60
2018-07-27T14:38:20.140Z,31.60
2018-07-27T14:40:48.413Z,31.80
2018-07-27T14:43:16.651Z,31.60
2018-07-27T14:45:44.962Z,31.60
2018-07-27T14:48:13.461Z,31.80
2018-07-27T14:50:42.025Z,31.90
2018-07-27T14:53:10.304Z,31.80
2018-07-27T14:55:38.544Z,32.30
2018-07-27T14:58:14.688Z,32.40
2018-07-27T15:00:43.039Z,32.10
2018-07-27T15:03:11.326Z,32.00
2018-07-27T15:05:39.605Z,32.00
2018-07-27T15:08:07.941Z,31.90
2018-07-27T15:10:36.266Z,31.80
2018-07-27T15:13:04.558Z,31.70
2018-07-27T15:15:36.459Z,31.50
2018-07-27T15:18:04.678Z,31.60
2018-07-27T15:20:32.941Z,31.70
2018-07-27T15:23:01.229Z,31.80
2018-07-27T15:25:29.581Z,31.70
2018-07-27T15:28:02.986Z,31.80
2018-07-27T15:30:31.341Z,32.00
2018-07-27T15:32:59.592Z,31.90
2018-07-27T15:35:28.030Z,31.60
2018-07-27T15:38:00.007Z,31.50
2018-07-27T15:40:28.265Z,31.40
2018-07-27T15:42:56.690Z,31.40
2018-07-27T15:45:24.963Z,31.30
2018-07-27T15:47:53.226Z,31.30
2018-07-27T15:50:21.555Z,31.30
2018-07-27T15:52:49.913Z,31.10
2018-07-27T15:57:46.624Z,31.00
2018-07-27T16:00:14.998Z,31.00
2018-07-27T16:02:43.352Z,30.80
2018-07-27T16:05:12.702Z,30.80
2018-07-27T16:07:40.974Z,30.70
2018-07-27T16:10:09.212Z,30.80
2018-07-27T16:12:38.485Z,30.80
2018-07-27T16:15:06.829Z,30.80
2018-07-27T16:17:35.145Z,30.70
2018-07-27T16:22:31.493Z,30.40
2018-07-27T16:24:59.845Z,30.30
2018-07-27T16:27:28.129Z,30.30
2018-07-27T16:29:56.502Z,30.30
2018-07-27T16:32:25.850Z,30.30
2018-07-27T16:34:54.255Z,30.20
2018-07-27T16:37:22.577Z,30.30
2018-07-27T16:39:51.102Z,30.20
2018-07-27T16:42:19.342Z,30.30
2018-07-27T16:44:47.595Z,30.30
2018-07-27T16:47:15.935Z,30.40
2018-07-27T16:49:44.208Z,30.50
2018-07-27T16:52:12.462Z,30.60
2018-07-27T16:54:40.737Z,30.60
2018-07-27T16:57:10.149Z,30.70
2018-07-27T16:59:38.617Z,30.80
2018-07-27T17:02:06.872Z,30.80
2018-07-27T17:04:35.173Z,30.80
2018-07-27T17:07:04.047Z,30.80
2018-07-27T17:09:32.700Z,30.70
2018-07-27T17:12:01.046Z,30.50
2018-07-27T17:14:29.270Z,30.60
2018-07-27T17:16:57.570Z,30.60
2018-07-27T17:19:25.874Z,30.50
2018-07-27T17:21:54.293Z,30.50
2018-07-27T17:24:22.491Z,30.50
2018-07-27T17:26:50.818Z,30.50
2018-07-27T17:29:19.110Z,30.50
2018-07-27T17:31:47.452Z,30.40
2018-07-27T17:34:15.784Z,30.40
2018-07-27T17:36:44.020Z,30.30
2018-07-27T17:39:12.313Z,30.30
2018-07-27T17:41:40.504Z,30.30
2018-07-27T17:44:09.356Z,30.30
2018-07-27T17:46:37.980Z,30.20
2018-07-27T17:49:06.840Z,30.20
2018-07-27T17:51:39.133Z,30.10
2018-07-27T17:54:08.383Z,30.00
2018-07-27T17:56:37.010Z,29.90
2018-07-27T17:59:05.525Z,29.90
2018-07-27T18:01:33.808Z,29.90
2018-07-27T18:04:02.057Z,29.80
2018-07-27T18:06:30.301Z,29.70
2018-07-27T18:08:58.554Z,29.70
2018-07-27T18:11:26.788Z,29.70
2018-07-27T18:13:55.041Z,29.60
2018-07-27T18:16:23.308Z,29.70
2018-07-27T18:18:51.601Z,29.60
2018-07-27T18:21:19.852Z,29.50
2018-07-27T18:23:48.160Z,29.50
2018-07-27T18:26:16.507Z,29.40
2018-07-27T18:28:45.818Z,29.20
2018-07-27T18:31:14.090Z,29.20
2018-07-27T18:33:42.345Z,29.10
2018-07-27T18:36:10.601Z,29.10
2018-07-27T18:41:06.947Z,28.70
2018-07-27T18:43:35.171Z,28.50
2018-07-27T18:46:04.334Z,28.50
2018-07-27T18:48:32.729Z,28.40
2018-07-27T18:51:00.978Z,28.30
2018-07-27T18:53:29.389Z,28.10
2018-07-27T18:55:57.687Z,27.90
2018-07-27T18:58:25.977Z,27.80
2018-07-27T19:00:54.282Z,27.80
2018-07-27T19:05:58.315Z,27.90
2018-07-27T19:08:26.736Z,28.00
2018-07-27T19:11:01.658Z,27.90
2018-07-27T19:13:29.925Z,27.80
2018-07-27T19:15:58.368Z,27.70
2018-07-27T19:18:26.572Z,27.60
2018-07-27T19:20:55.225Z,27.40
2018-07-27T19:23:23.757Z,27.30
2018-07-27T19:25:59.266Z,27.10
2018-07-27T19:28:27.506Z,27.10
2018-07-27T19:30:56.465Z,27.00
2018-07-27T19:33:24.700Z,26.90
2018-07-27T19:35:54.824Z,26.70
2018-07-27T19:38:29.928Z,26.50
2018-07-27T19:40:58.874Z,26.40
2018-07-27T19:43:27.050Z,26.20
2018-07-27T19:45:55.259Z,26.10
2018-07-27T19:48:30.906Z,26.20
2018-07-27T19:51:06.214Z,26.30
2018-07-27T19:53:34.965Z,26.20
2018-07-27T19:56:03.222Z,26.10
2018-07-27T19:58:32.458Z,26.00
2018-07-27T20:03:56.686Z,25.90
2018-07-27T20:06:25.058Z,25.70
2018-07-27T20:08:53.457Z,25.60
2018-07-27T20:11:22.348Z,25.50
2018-07-27T20:13:50.554Z,25.40
2018-07-27T20:16:18.800Z,25.40
2018-07-27T20:18:49.071Z,25.40
2018-07-27T20:21:18.387Z,25.40
2018-07-27T20:23:46.685Z,25.30
2018-07-27T20:26:17.591Z,25.20
2018-07-27T20:28:45.870Z,25.20
2018-07-27T20:31:27.275Z,25.20
2018-07-27T20:33:55.541Z,25.10
2018-07-27T20:36:24.476Z,25.10
2018-07-27T20:38:59.082Z,25.40
2018-07-27T20:41:29.747Z,25.30
2018-07-27T20:44:12.546Z,25.10
2018-07-27T20:47:12.363Z,25.00
2018-07-27T20:49:42.350Z,25.10
2018-07-27T20:52:16.708Z,25.00
2018-07-27T21:07:23.492Z,25.00
2018-07-27T21:09:51.763Z,24.90
2018-07-27T21:12:19.971Z,24.80
2018-07-27T21:14:55.899Z,24.80
2018-07-27T21:20:09.989Z,24.80
2018-07-27T21:25:07.737Z,24.70
2018-07-27T21:27:36.016Z,24.70
2018-07-27T21:30:07.010Z,24.70
2018-07-27T21:32:37.002Z,24.80
2018-07-27T21:35:08.458Z,24.70
2018-07-27T21:37:36.713Z,24.60
2018-07-27T21:40:05.089Z,24.50
2018-07-27T21:42:33.382Z,24.50
2018-07-27T21:45:01.694Z,24.50
2018-07-27T21:47:29.923Z,24.40
2018-07-27T21:49:58.116Z,24.40
2018-07-27T21:52:26.316Z,24.40
2018-07-27T21:54:54.559Z,24.40
2018-07-27T21:57:22.776Z,24.30
2018-07-27T21:59:54.676Z,24.30
2018-07-27T22:02:22.973Z,24.20
2018-07-27T22:04:58.852Z,24.10
2018-07-27T22:07:28.264Z,24.10
2018-07-27T22:24:22.030Z,23.80
